sensor_id;sensor_type;location;lat;lon;timestamp;pressure;altitude;pressure_sealevel;temperature;humidity
44044;BME280;29709;52.396;16.796;2023-04-16T00:02:53;101484.05;;;11.25;88.06
44044;BME280;29709;52.396;16.796;2023-04-16T00:06:06;101484.59;;;11.29;88.34
44044;BME280;29709;52.396;16.796;2023-04-16T00:09:19;101489.45;;;11.35;88.26
44044;BME280;29709;52.396;16.796;2023-04-16T00:12:33;101482.80;;;11.38;87.59
44044;BME280;29709;52.396;16.796;2023-04-16T00:15:46;101498.12;;;11.40;86.49
44044;BME280;29709;52.396;16.796;2023-04-16T00:18:59;101498.20;;;11.31;86.38
44044;BME280;29709;52.396;16.796;2023-04-16T00:22:12;101500.85;;;11.22;86.60
44044;BME280;29709;52.396;16.796;2023-04-16T00:25:26;101496.11;;;11.15;87.98
44044;BME280;29709;52.396;16.796;2023-04-16T00:28:39;101507.59;;;11.10;87.39
44044;BME280;29709;52.396;16.796;2023-04-16T00:31:53;101504.85;;;11.10;88.43
44044;BME280;29709;52.396;16.796;2023-04-16T00:35:07;101497.56;;;11.19;88.61
44044;BME280;29709;52.396;16.796;2023-04-16T00:38:20;101494.74;;;11.28;87.79
44044;BME280;29709;52.396;16.796;2023-04-16T00:41:33;101489.08;;;11.30;88.54
44044;BME280;29709;52.396;16.796;2023-04-16T00:44:46;101502.13;;;11.28;88.31
44044;BME280;29709;52.396;16.796;2023-04-16T00:48:00;101499.22;;;11.30;87.38
44044;BME280;29709;52.396;16.796;2023-04-16T00:51:15;101492.15;;;11.27;88.22
44044;BME280;29709;52.396;16.796;2023-04-16T00:54:29;101495.61;;;11.29;87.59
44044;BME280;29709;52.396;16.796;2023-04-16T00:57:44;101498.51;;;11.27;88.42
44044;BME280;29709;52.396;16.796;2023-04-16T01:00:58;101507.63;;;11.28;88.65
44044;BME280;29709;52.396;16.796;2023-04-16T01:04:11;101505.75;;;11.28;88.22
44044;BME280;29709;52.396;16.796;2023-04-16T01:07:24;101513.30;;;11.26;88.64
44044;BME280;29709;52.396;16.796;2023-04-16T01:10:38;101505.66;;;11.20;88.17
44044;BME280;29709;52.396;16.796;2023-04-16T01:13:51;101507.06;;;11.24;87.84
44044;BME280;29709;52.396;16.796;2023-04-16T01:17:04;101508.66;;;11.27;88.76
44044;BME280;29709;52.396;16.796;2023-04-16T01:20:17;101511.95;;;11.31;88.46
44044;BME280;29709;52.396;16.796;2023-04-16T01:23:31;101506.77;;;11.27;88.35
44044;BME280;29709;52.396;16.796;2023-04-16T01:26:44;101501.43;;;11.26;88.09
44044;BME280;29709;52.396;16.796;2023-04-16T01:29:57;101504.95;;;11.18;88.70
44044;BME280;29709;52.396;16.796;2023-04-16T01:33:11;101506.58;;;11.11;87.80
44044;BME280;29709;52.396;16.796;2023-04-16T01:36:24;101509.64;;;11.08;89.14
44044;BME280;29709;52.396;16.796;2023-04-16T01:39:38;101506.26;;;11.14;88.85
44044;BME280;29709;52.396;16.796;2023-04-16T01:42:52;101509.97;;;11.23;88.98
44044;BME280;29709;52.396;16.796;2023-04-16T01:46:13;101512.11;;;11.29;88.30
44044;BME280;29709;52.396;16.796;2023-04-16T01:49:28;101511.95;;;11.31;87.55
44044;BME280;29709;52.396;16.796;2023-04-16T01:52:41;101505.10;;;11.35;88.37
44044;BME280;29709;52.396;16.796;2023-04-16T01:55:54;101502.52;;;11.33;88.11
44044;BME280;29709;52.396;16.796;2023-04-16T01:59:07;101497.87;;;11.34;88.53
44044;BME280;29709;52.396;16.796;2023-04-16T02:02:20;101505.84;;;11.37;88.11
44044;BME280;29709;52.396;16.796;2023-04-16T02:05:40;101503.09;;;11.37;88.05
44044;BME280;29709;52.396;16.796;2023-04-16T02:08:54;101515.25;;;11.34;87.78
44044;BME280;29709;52.396;16.796;2023-04-16T02:12:07;101510.92;;;11.32;87.66
44044;BME280;29709;52.396;16.796;2023-04-16T02:15:23;101517.08;;;11.25;86.58
44044;BME280;29709;52.396;16.796;2023-04-16T02:18:37;101511.53;;;11.08;88.64
44044;BME280;29709;52.396;16.796;2023-04-16T02:21:51;101515.86;;;11.10;89.26
44044;BME280;29709;52.396;16.796;2023-04-16T02:25:05;101514.67;;;11.13;89.38
44044;BME280;29709;52.396;16.796;2023-04-16T02:28:18;101521.91;;;11.14;87.70
44044;BME280;29709;52.396;16.796;2023-04-16T02:31:31;101522.38;;;11.09;88.36
44044;BME280;29709;52.396;16.796;2023-04-16T02:34:44;101521.83;;;11.06;87.79
44044;BME280;29709;52.396;16.796;2023-04-16T02:37:58;101520.39;;;11.02;87.94
44044;BME280;29709;52.396;16.796;2023-04-16T02:41:11;101530.84;;;10.98;89.00
44044;BME280;29709;52.396;16.796;2023-04-16T02:44:24;101518.49;;;11.02;89.73
44044;BME280;29709;52.396;16.796;2023-04-16T02:47:38;101526.60;;;11.04;88.89
44044;BME280;29709;52.396;16.796;2023-04-16T02:50:51;101534.91;;;10.94;88.61
44044;BME280;29709;52.396;16.796;2023-04-16T02:54:04;101523.23;;;10.82;88.69
44044;BME280;29709;52.396;16.796;2023-04-16T02:57:17;101526.34;;;10.69;89.54
44044;BME280;29709;52.396;16.796;2023-04-16T03:00:30;101528.70;;;10.64;90.15
44044;BME280;29709;52.396;16.796;2023-04-16T03:03:44;101533.05;;;10.57;91.18
44044;BME280;29709;52.396;16.796;2023-04-16T03:06:57;101534.23;;;10.55;90.90
44044;BME280;29709;52.396;16.796;2023-04-16T03:10:10;101532.35;;;10.55;91.08
44044;BME280;29709;52.396;16.796;2023-04-16T03:13:25;101534.94;;;10.57;91.45
44044;BME280;29709;52.396;16.796;2023-04-16T03:16:38;101533.73;;;10.69;91.87
44044;BME280;29709;52.396;16.796;2023-04-16T03:19:53;101536.12;;;10.82;91.70
44044;BME280;29709;52.396;16.796;2023-04-16T03:23:06;101542.01;;;10.96;90.88
44044;BME280;29709;52.396;16.796;2023-04-16T03:26:19;101546.44;;;11.07;90.67
44044;BME280;29709;52.396;16.796;2023-04-16T03:29:35;101544.66;;;11.16;89.95
44044;BME280;29709;52.396;16.796;2023-04-16T03:32:50;101553.89;;;11.15;89.65
44044;BME280;29709;52.396;16.796;2023-04-16T03:36:04;101547.13;;;11.09;88.80
44044;BME280;29709;52.396;16.796;2023-04-16T03:39:18;101559.92;;;11.01;88.92
44044;BME280;29709;52.396;16.796;2023-04-16T03:42:31;101553.16;;;10.95;90.00
44044;BME280;29709;52.396;16.796;2023-04-16T03:45:45;101561.84;;;10.90;89.30
44044;BME280;29709;52.396;16.796;2023-04-16T03:48:59;101559.98;;;10.91;89.74
44044;BME280;29709;52.396;16.796;2023-04-16T03:52:13;101566.09;;;10.85;89.13
44044;BME280;29709;52.396;16.796;2023-04-16T03:55:27;101569.91;;;10.74;89.67
44044;BME280;29709;52.396;16.796;2023-04-16T03:58:40;101581.17;;;10.71;90.55
44044;BME280;29709;52.396;16.796;2023-04-16T04:01:53;101581.02;;;10.73;90.78
44044;BME280;29709;52.396;16.796;2023-04-16T04:05:07;101589.55;;;10.79;91.90
44044;BME280;29709;52.396;16.796;2023-04-16T04:08:20;101592.26;;;10.89;91.09
44044;BME280;29709;52.396;16.796;2023-04-16T04:11:33;101586.26;;;11.03;90.83
44044;BME280;29709;52.396;16.796;2023-04-16T04:14:47;101587.85;;;11.06;90.49
44044;BME280;29709;52.396;16.796;2023-04-16T04:18:00;101581.93;;;11.01;89.18
44044;BME280;29709;52.396;16.796;2023-04-16T04:21:13;101598.73;;;10.97;89.35
44044;BME280;29709;52.396;16.796;2023-04-16T04:24:26;101593.40;;;10.96;90.18
44044;BME280;29709;52.396;16.796;2023-04-16T04:27:39;101606.29;;;10.95;90.04
44044;BME280;29709;52.396;16.796;2023-04-16T04:30:52;101610.17;;;10.93;89.10
44044;BME280;29709;52.396;16.796;2023-04-16T04:34:05;101611.79;;;10.95;90.55
44044;BME280;29709;52.396;16.796;2023-04-16T04:37:19;101614.62;;;11.04;89.91
44044;BME280;29709;52.396;16.796;2023-04-16T04:40:32;101618.11;;;11.06;90.37
44044;BME280;29709;52.396;16.796;2023-04-16T04:43:46;101615.20;;;11.07;89.96
44044;BME280;29709;52.396;16.796;2023-04-16T04:46:59;101612.85;;;11.12;90.56
44044;BME280;29709;52.396;16.796;2023-04-16T04:50:13;101617.00;;;11.26;90.84
44044;BME280;29709;52.396;16.796;2023-04-16T04:53:27;101618.80;;;11.35;90.15
44044;BME280;29709;52.396;16.796;2023-04-16T04:56:40;101616.32;;;11.42;89.73
44044;BME280;29709;52.396;16.796;2023-04-16T04:59:53;101619.23;;;11.40;89.60
44044;BME280;29709;52.396;16.796;2023-04-16T05:03:09;101622.14;;;11.39;89.30
44044;BME280;29709;52.396;16.796;2023-04-16T05:06:23;101629.37;;;11.40;90.01
44044;BME280;29709;52.396;16.796;2023-04-16T05:09:36;101630.88;;;11.52;89.88
44044;BME280;29709;52.396;16.796;2023-04-16T05:12:49;101643.57;;;11.63;89.86
44044;BME280;29709;52.396;16.796;2023-04-16T05:16:03;101641.95;;;11.70;89.63
44044;BME280;29709;52.396;16.796;2023-04-16T05:19:16;101648.41;;;11.78;89.72
44044;BME280;29709;52.396;16.796;2023-04-16T05:22:29;101654.59;;;11.90;89.01
44044;BME280;29709;52.396;16.796;2023-04-16T05:25:43;101655.29;;;11.92;88.88
44044;BME280;29709;52.396;16.796;2023-04-16T05:28:56;101645.22;;;12.01;89.01
44044;BME280;29709;52.396;16.796;2023-04-16T05:32:09;101649.23;;;12.06;88.72
44044;BME280;29709;52.396;16.796;2023-04-16T05:35:22;101658.06;;;12.10;88.54
44044;BME280;29709;52.396;16.796;2023-04-16T05:38:35;101650.34;;;12.13;88.29
44044;BME280;29709;52.396;16.796;2023-04-16T05:41:48;101656.55;;;12.16;87.54
44044;BME280;29709;52.396;16.796;2023-04-16T05:45:02;101659.72;;;12.21;88.05
44044;BME280;29709;52.396;16.796;2023-04-16T05:48:16;101664.20;;;12.22;87.60
44044;BME280;29709;52.396;16.796;2023-04-16T05:51:31;101663.87;;;12.25;87.90
44044;BME280;29709;52.396;16.796;2023-04-16T05:54:45;101661.98;;;12.25;87.43
44044;BME280;29709;52.396;16.796;2023-04-16T05:57:58;101666.63;;;12.25;86.83
44044;BME280;29709;52.396;16.796;2023-04-16T06:01:11;101670.95;;;12.27;87.54
44044;BME280;29709;52.396;16.796;2023-04-16T06:04:24;101664.81;;;12.33;86.98
44044;BME280;29709;52.396;16.796;2023-04-16T06:07:39;101677.49;;;12.44;87.27
44044;BME280;29709;52.396;16.796;2023-04-16T06:10:52;101682.84;;;12.46;86.81
44044;BME280;29709;52.396;16.796;2023-04-16T06:14:05;101675.84;;;12.51;86.28
44044;BME280;29709;52.396;16.796;2023-04-16T06:17:19;101692.14;;;12.45;85.82
44044;BME280;29709;52.396;16.796;2023-04-16T06:20:33;101693.38;;;12.50;86.02
44044;BME280;29709;52.396;16.796;2023-04-16T06:23:46;101694.41;;;12.49;86.50
44044;BME280;29709;52.396;16.796;2023-04-16T06:26:59;101689.84;;;12.58;85.56
44044;BME280;29709;52.396;16.796;2023-04-16T06:30:13;101694.72;;;12.64;85.66
44044;BME280;29709;52.396;16.796;2023-04-16T06:33:27;101695.95;;;12.69;86.03
44044;BME280;29709;52.396;16.796;2023-04-16T06:36:40;101700.18;;;12.82;85.88
44044;BME280;29709;52.396;16.796;2023-04-16T06:39:53;101706.43;;;12.84;86.01
44044;BME280;29709;52.396;16.796;2023-04-16T06:43:06;101710.41;;;12.89;86.36
44044;BME280;29709;52.396;16.796;2023-04-16T06:46:20;101715.00;;;12.81;85.42
44044;BME280;29709;52.396;16.796;2023-04-16T06:49:33;101716.53;;;12.75;84.98
44044;BME280;29709;52.396;16.796;2023-04-16T06:52:46;101710.47;;;12.71;85.68
44044;BME280;29709;52.396;16.796;2023-04-16T06:55:59;101708.41;;;12.74;85.52
44044;BME280;29709;52.396;16.796;2023-04-16T06:59:12;101711.38;;;12.80;85.49
44044;BME280;29709;52.396;16.796;2023-04-16T07:02:25;101720.92;;;12.86;85.25
44044;BME280;29709;52.396;16.796;2023-04-16T07:05:39;101718.09;;;12.78;84.46
44044;BME280;29709;52.396;16.796;2023-04-16T07:08:52;101717.06;;;12.79;85.20
44044;BME280;29709;52.396;16.796;2023-04-16T07:12:05;101719.88;;;12.87;85.10
44044;BME280;29709;52.396;16.796;2023-04-16T07:15:19;101726.51;;;12.94;85.34
44044;BME280;29709;52.396;16.796;2023-04-16T07:18:34;101722.92;;;13.01;85.16
44044;BME280;29709;52.396;16.796;2023-04-16T07:21:47;101735.21;;;13.07;85.08
44044;BME280;29709;52.396;16.796;2023-04-16T07:25:00;101728.50;;;13.10;84.95
44044;BME280;29709;52.396;16.796;2023-04-16T07:28:14;101735.38;;;13.06;84.71
44044;BME280;29709;52.396;16.796;2023-04-16T07:31:29;101737.45;;;13.04;85.23
44044;BME280;29709;52.396;16.796;2023-04-16T07:34:43;101740.24;;;13.12;85.09
44044;BME280;29709;52.396;16.796;2023-04-16T07:37:57;101742.30;;;13.10;83.82
44044;BME280;29709;52.396;16.796;2023-04-16T07:41:11;101741.66;;;13.16;84.71
44044;BME280;29709;52.396;16.796;2023-04-16T07:44:25;101749.01;;;13.25;85.56
44044;BME280;29709;52.396;16.796;2023-04-16T07:47:38;101752.13;;;13.30;83.92
44044;BME280;29709;52.396;16.796;2023-04-16T07:50:52;101748.67;;;13.28;84.47
44044;BME280;29709;52.396;16.796;2023-04-16T07:54:05;101751.79;;;13.33;85.23
44044;BME280;29709;52.396;16.796;2023-04-16T07:57:18;101759.37;;;13.31;84.57
44044;BME280;29709;52.396;16.796;2023-04-16T08:00:32;101758.79;;;13.19;84.34
44044;BME280;29709;52.396;16.796;2023-04-16T08:03:46;101759.89;;;13.09;84.66
44044;BME280;29709;52.396;16.796;2023-04-16T08:06:59;101767.93;;;13.02;84.95
44044;BME280;29709;52.396;16.796;2023-04-16T08:10:12;101762.67;;;12.91;84.46
44044;BME280;29709;52.396;16.796;2023-04-16T08:13:25;101768.15;;;12.83;85.00
44044;BME280;29709;52.396;16.796;2023-04-16T08:16:38;101774.12;;;12.78;84.70
44044;BME280;29709;52.396;16.796;2023-04-16T08:19:53;101775.48;;;12.74;85.90
44044;BME280;29709;52.396;16.796;2023-04-16T08:23:09;101774.12;;;12.78;85.23
44044;BME280;29709;52.396;16.796;2023-04-16T08:26:22;101785.94;;;12.88;85.75
44044;BME280;29709;52.396;16.796;2023-04-16T08:29:39;101775.68;;;12.98;85.94
44044;BME280;29709;52.396;16.796;2023-04-16T08:32:53;101787.32;;;13.10;84.69
44044;BME280;29709;52.396;16.796;2023-04-16T08:36:07;101786.23;;;13.21;84.87
44044;BME280;29709;52.396;16.796;2023-04-16T08:39:20;101789.85;;;13.21;84.03
44044;BME280;29709;52.396;16.796;2023-04-16T08:42:39;101797.43;;;13.19;83.63
44044;BME280;29709;52.396;16.796;2023-04-16T08:45:54;101794.21;;;13.24;85.23
44044;BME280;29709;52.396;16.796;2023-04-16T08:49:16;101798.95;;;13.40;84.88
44044;BME280;29709;52.396;16.796;2023-04-16T08:52:36;101799.77;;;13.58;84.18
44044;BME280;29709;52.396;16.796;2023-04-16T08:55:50;101789.30;;;13.70;83.86
44044;BME280;29709;52.396;16.796;2023-04-16T08:59:04;101797.64;;;13.78;84.26
44044;BME280;29709;52.396;16.796;2023-04-16T09:02:18;101801.15;;;13.96;83.46
44044;BME280;29709;52.396;16.796;2023-04-16T09:05:32;101808.23;;;13.91;82.42
44044;BME280;29709;52.396;16.796;2023-04-16T09:08:48;101805.20;;;14.10;82.82
44044;BME280;29709;52.396;16.796;2023-04-16T09:12:02;101811.64;;;14.19;80.48
44044;BME280;29709;52.396;16.796;2023-04-16T09:15:19;101813.23;;;14.29;80.87
44044;BME280;29709;52.396;16.796;2023-04-16T09:18:33;101801.47;;;14.35;81.03
44044;BME280;29709;52.396;16.796;2023-04-16T09:21:47;101811.76;;;14.51;79.87
44044;BME280;29709;52.396;16.796;2023-04-16T09:25:00;101812.66;;;14.76;80.27
44044;BME280;29709;52.396;16.796;2023-04-16T09:31:37;101826.67;;;14.99;78.95
44044;BME280;29709;52.396;16.796;2023-04-16T09:34:57;101828.06;;;15.19;78.25
44044;BME280;29709;52.396;16.796;2023-04-16T09:38:11;101825.63;;;15.41;76.58
44044;BME280;29709;52.396;16.796;2023-04-16T09:41:29;101833.74;;;15.58;73.44
44044;BME280;29709;52.396;16.796;2023-04-16T09:44:43;101829.41;;;15.72;76.01
44044;BME280;29709;52.396;16.796;2023-04-16T09:48:02;101816.37;;;15.89;75.90
44044;BME280;29709;52.396;16.796;2023-04-16T09:51:17;101826.41;;;15.98;71.70
44044;BME280;29709;52.396;16.796;2023-04-16T09:54:30;101831.77;;;16.00;68.66
44044;BME280;29709;52.396;16.796;2023-04-16T09:57:44;101831.71;;;16.16;70.59
44044;BME280;29709;52.396;16.796;2023-04-16T10:01:02;101835.59;;;16.38;72.34
44044;BME280;29709;52.396;16.796;2023-04-16T10:04:17;101838.59;;;16.28;71.25
44044;BME280;29709;52.396;16.796;2023-04-16T10:07:35;101833.96;;;16.12;70.14
44044;BME280;29709;52.396;16.796;2023-04-16T10:10:49;101837.46;;;16.06;70.90
44044;BME280;29709;52.396;16.796;2023-04-16T10:14:03;101843.70;;;16.08;69.12
44044;BME280;29709;52.396;16.796;2023-04-16T10:17:16;101836.42;;;16.07;70.30
44044;BME280;29709;52.396;16.796;2023-04-16T10:20:30;101836.03;;;16.19;68.80
44044;BME280;29709;52.396;16.796;2023-04-16T10:23:43;101840.84;;;16.25;68.31
44044;BME280;29709;52.396;16.796;2023-04-16T10:26:57;101833.00;;;16.67;67.35
44044;BME280;29709;52.396;16.796;2023-04-16T10:30:12;101840.70;;;16.57;65.76
44044;BME280;29709;52.396;16.796;2023-04-16T10:33:30;101849.12;;;16.72;64.95
44044;BME280;29709;52.396;16.796;2023-04-16T10:36:47;101851.03;;;16.32;63.67
44044;BME280;29709;52.396;16.796;2023-04-16T10:43:29;101854.99;;;15.99;62.62
44044;BME280;29709;52.396;16.796;2023-04-16T10:46:46;101856.03;;;15.98;64.55
44044;BME280;29709;52.396;16.796;2023-04-16T10:53:27;101856.23;;;15.88;66.35
44044;BME280;29709;52.396;16.796;2023-04-16T10:56:43;101866.11;;;15.82;67.12
44044;BME280;29709;52.396;16.796;2023-04-16T10:59:57;101856.98;;;15.66;65.01
44044;BME280;29709;52.396;16.796;2023-04-16T11:03:11;101865.81;;;15.53;65.78
44044;BME280;29709;52.396;16.796;2023-04-16T11:06:25;101869.95;;;15.57;67.19
44044;BME280;29709;52.396;16.796;2023-04-16T11:09:49;101867.17;;;15.57;67.47
44044;BME280;29709;52.396;16.796;2023-04-16T11:13:05;101875.99;;;15.52;67.66
44044;BME280;29709;52.396;16.796;2023-04-16T11:16:18;101882.94;;;15.48;66.57
44044;BME280;29709;52.396;16.796;2023-04-16T11:19:34;101875.85;;;15.38;66.47
44044;BME280;29709;52.396;16.796;2023-04-16T11:22:54;101875.85;;;15.38;66.48
44044;BME280;29709;52.396;16.796;2023-04-16T11:26:22;101879.14;;;15.33;65.96
44044;BME280;29709;52.396;16.796;2023-04-16T11:29:31;101875.52;;;15.33;66.90
44044;BME280;29709;52.396;16.796;2023-04-16T11:32:44;101885.73;;;15.32;66.65
44044;BME280;29709;52.396;16.796;2023-04-16T11:35:57;101887.63;;;15.23;67.44
44044;BME280;29709;52.396;16.796;2023-04-16T11:40:41;101887.27;;;15.02;67.52
44044;BME280;29709;52.396;16.796;2023-04-16T11:43:54;101884.81;;;14.99;67.25
44044;BME280;29709;52.396;16.796;2023-04-16T11:47:07;101884.47;;;14.94;66.57
44044;BME280;29709;52.396;16.796;2023-04-16T11:50:22;101887.07;;;14.95;67.33
44044;BME280;29709;52.396;16.796;2023-04-16T11:53:35;101898.31;;;14.94;67.91
44044;BME280;29709;52.396;16.796;2023-04-16T11:56:50;101886.18;;;14.87;67.35
44044;BME280;29709;52.396;16.796;2023-04-16T12:00:05;101894.32;;;14.80;66.94
44044;BME280;29709;52.396;16.796;2023-04-16T12:10:15;101887.07;;;14.95;68.19
44044;BME280;29709;52.396;16.796;2023-04-16T12:13:28;101900.06;;;15.03;68.04
44044;BME280;29709;52.396;16.796;2023-04-16T12:16:42;101892.99;;;15.25;67.55
44044;BME280;29709;52.396;16.796;2023-04-16T12:19:57;101896.26;;;15.20;67.62
44044;BME280;29709;52.396;16.796;2023-04-16T12:26:42;101897.99;;;15.29;66.36
44044;BME280;29709;52.396;16.796;2023-04-16T12:30:04;101883.83;;;15.33;64.98
44044;BME280;29709;52.396;16.796;2023-04-16T12:33:19;101895.23;;;15.38;65.20
44044;BME280;29709;52.396;16.796;2023-04-16T12:36:33;101889.86;;;15.52;64.99
44044;BME280;29709;52.396;16.796;2023-04-16T12:39:46;101895.79;;;15.66;65.10
44044;BME280;29709;52.396;16.796;2023-04-16T12:42:59;101885.90;;;15.55;63.89
44044;BME280;29709;52.396;16.796;2023-04-16T12:46:14;101898.34;;;15.51;66.51
44044;BME280;29709;52.396;16.796;2023-04-16T12:49:27;101895.42;;;15.44;64.95
44044;BME280;29709;52.396;16.796;2023-04-16T12:52:41;101887.97;;;15.37;66.63
44044;BME280;29709;52.396;16.796;2023-04-16T12:55:54;101895.60;;;15.35;66.45
44044;BME280;29709;52.396;16.796;2023-04-16T12:59:07;101902.14;;;15.42;68.00
44044;BME280;29709;52.396;16.796;2023-04-16T13:02:23;101902.33;;;15.48;66.96
44044;BME280;29709;52.396;16.796;2023-04-16T13:05:36;101896.97;;;15.47;66.49
44044;BME280;29709;52.396;16.796;2023-04-16T13:08:50;101907.37;;;15.45;66.29
44044;BME280;29709;52.396;16.796;2023-04-16T13:12:03;101901.99;;;15.35;66.98
44044;BME280;29709;52.396;16.796;2023-04-16T13:18:37;101907.19;;;15.22;66.35
44044;BME280;29709;52.396;16.796;2023-04-16T13:25:26;101901.09;;;15.10;67.43
44044;BME280;29709;52.396;16.796;2023-04-16T13:28:39;101901.78;;;14.96;67.65
44044;BME280;29709;52.396;16.796;2023-04-16T13:31:53;101901.92;;;14.86;68.10
44044;BME280;29709;52.396;16.796;2023-04-16T13:35:09;101904.72;;;14.94;68.92
44044;BME280;29709;52.396;16.796;2023-04-16T13:38:22;101902.81;;;14.95;68.42
44044;BME280;29709;52.396;16.796;2023-04-16T13:41:39;101908.18;;;14.96;67.96
44044;BME280;29709;52.396;16.796;2023-04-16T13:44:53;101913.05;;;15.03;68.46
44044;BME280;29709;52.396;16.796;2023-04-16T13:48:06;101905.23;;;14.98;68.45
44044;BME280;29709;52.396;16.796;2023-04-16T13:51:20;101913.69;;;14.80;68.85
44044;BME280;29709;52.396;16.796;2023-04-16T13:54:33;101907.05;;;14.65;69.46
44044;BME280;29709;52.396;16.796;2023-04-16T13:57:47;101913.80;;;14.62;69.22
44044;BME280;29709;52.396;16.796;2023-04-16T14:01:02;101915.15;;;14.58;69.84
44044;BME280;29709;52.396;16.796;2023-04-16T14:04:15;101905.65;;;14.53;69.43
44044;BME280;29709;52.396;16.796;2023-04-16T14:07:28;101912.87;;;14.46;68.91
44044;BME280;29709;52.396;16.796;2023-04-16T14:10:42;101919.81;;;14.50;68.84
44044;BME280;29709;52.396;16.796;2023-04-16T14:13:56;101912.91;;;14.54;68.92
44044;BME280;29709;52.396;16.796;2023-04-16T14:17:10;101916.02;;;14.59;69.10
44044;BME280;29709;52.396;16.796;2023-04-16T14:20:23;101922.14;;;14.70;69.70
44044;BME280;29709;52.396;16.796;2023-04-16T14:23:36;101914.15;;;14.67;69.51
44044;BME280;29709;52.396;16.796;2023-04-16T14:26:49;101917.23;;;14.56;69.89
44044;BME280;29709;52.396;16.796;2023-04-16T14:30:04;101916.91;;;14.59;69.23
44044;BME280;29709;52.396;16.796;2023-04-16T14:33:17;101916.53;;;14.54;69.70
44044;BME280;29709;52.396;16.796;2023-04-16T14:36:31;101915.50;;;14.55;69.48
44044;BME280;29709;52.396;16.796;2023-04-16T14:39:44;101912.07;;;14.61;69.37
44044;BME280;29709;52.396;16.796;2023-04-16T14:42:57;101923.87;;;14.71;69.57
44044;BME280;29709;52.396;16.796;2023-04-16T14:46:10;101922.31;;;14.77;69.31
44044;BME280;29709;52.396;16.796;2023-04-16T14:49:24;101929.92;;;14.75;68.07
44044;BME280;29709;52.396;16.796;2023-04-16T14:52:38;101924.21;;;14.77;68.64
44044;BME280;29709;52.396;16.796;2023-04-16T14:55:51;101925.08;;;14.77;68.39
44044;BME280;29709;52.396;16.796;2023-04-16T14:59:06;101925.21;;;14.67;69.59
44044;BME280;29709;52.396;16.796;2023-04-16T15:02:19;101919.69;;;14.59;72.43
44044;BME280;29709;52.396;16.796;2023-04-16T15:05:34;101926.43;;;14.65;71.71
44044;BME280;29709;52.396;16.796;2023-04-16T15:08:47;101922.59;;;14.58;72.28
44044;BME280;29709;52.396;16.796;2023-04-16T15:12:00;101930.23;;;14.64;72.13
44044;BME280;29709;52.396;16.796;2023-04-16T15:15:13;101936.28;;;14.59;71.54
44044;BME280;29709;52.396;16.796;2023-04-16T15:18:27;101930.33;;;14.46;72.32
44044;BME280;29709;52.396;16.796;2023-04-16T15:21:41;101948.05;;;14.35;72.84
44044;BME280;29709;52.396;16.796;2023-04-16T15:24:54;101948.28;;;14.16;72.75
44044;BME280;29709;52.396;16.796;2023-04-16T15:28:07;101951.38;;;14.13;73.25
44044;BME280;29709;52.396;16.796;2023-04-16T15:31:20;101952.36;;;14.04;74.14
44044;BME280;29709;52.396;16.796;2023-04-16T15:34:34;101949.68;;;13.86;74.93
44044;BME280;29709;52.396;16.796;2023-04-16T15:37:47;101947.55;;;13.80;75.43
44044;BME280;29709;52.396;16.796;2023-04-16T15:41:00;101955.43;;;13.75;76.34
44044;BME280;29709;52.396;16.796;2023-04-16T15:44:13;101946.84;;;13.78;76.68
44044;BME280;29709;52.396;16.796;2023-04-16T15:47:28;101954.37;;;13.68;76.97
44044;BME280;29709;52.396;16.796;2023-04-16T15:50:41;101949.96;;;13.57;78.21
44044;BME280;29709;52.396;16.796;2023-04-16T15:53:54;101956.80;;;13.53;78.61
44044;BME280;29709;52.396;16.796;2023-04-16T15:57:09;101967.56;;;13.38;80.53
44044;BME280;29709;52.396;16.796;2023-04-16T16:00:22;101956.60;;;13.28;80.70
44044;BME280;29709;52.396;16.796;2023-04-16T16:03:36;101968.13;;;13.24;81.36
44044;BME280;29709;52.396;16.796;2023-04-16T16:06:49;101975.67;;;13.22;81.23
44044;BME280;29709;52.396;16.796;2023-04-16T16:10:03;101973.53;;;13.16;81.27
44044;BME280;29709;52.396;16.796;2023-04-16T16:13:17;101971.18;;;13.21;81.42
44044;BME280;29709;52.396;16.796;2023-04-16T16:16:31;101976.13;;;13.17;81.29
44044;BME280;29709;52.396;16.796;2023-04-16T16:19:45;101978.41;;;13.04;81.63
44044;BME280;29709;52.396;16.796;2023-04-16T16:22:58;101987.62;;;12.95;81.86
44044;BME280;29709;52.396;16.796;2023-04-16T16:26:11;101982.87;;;12.87;82.75
44044;BME280;29709;52.396;16.796;2023-04-16T16:29:25;101993.58;;;12.90;82.92
44044;BME280;29709;52.396;16.796;2023-04-16T16:32:38;101995.19;;;12.93;82.83
44044;BME280;29709;52.396;16.796;2023-04-16T16:35:56;101994.45;;;12.91;82.77
44044;BME280;29709;52.396;16.796;2023-04-16T16:39:09;101994.32;;;12.92;82.79
44044;BME280;29709;52.396;16.796;2023-04-16T16:42:22;101999.26;;;12.89;82.92
44044;BME280;29709;52.396;16.796;2023-04-16T16:45:36;102000.60;;;12.85;82.53
44044;BME280;29709;52.396;16.796;2023-04-16T16:48:49;101999.31;;;12.79;82.55
44044;BME280;29709;52.396;16.796;2023-04-16T16:52:02;102003.80;;;12.80;82.84
44044;BME280;29709;52.396;16.796;2023-04-16T16:55:16;102011.84;;;12.74;82.88
44044;BME280;29709;52.396;16.796;2023-04-16T16:58:30;102013.74;;;12.73;81.70
44044;BME280;29709;52.396;16.796;2023-04-16T17:01:43;102016.38;;;12.65;80.94
44044;BME280;29709;52.396;16.796;2023-04-16T17:04:57;102020.05;;;12.56;80.46
44044;BME280;29709;52.396;16.796;2023-04-16T17:08:10;102017.76;;;12.51;81.39
44044;BME280;29709;52.396;16.796;2023-04-16T17:11:25;102018.62;;;12.52;81.30